Time;durP1;ratioP1;P1;durP2;ratioP2;P2;SDS_P1;SDS_P2;PMS_P1;PMS_P2;Temp;Humidity;BMP_temperature;BMP_pressure;BME280_temperature;BME280_humidity;BME280_pressure;Samples;Min_cycle;Max_cycle;Signal;HPM_P1;HPM_P2
2023/05/31 00:00:12;;;;;;;3.17;1.67;;;;;;;12.58;100.00;96106.31;1030375;28;20860;-73
2023/05/31 00:00:43;;;;;;;3.97;1.90;;;;;;;12.59;100.00;96106.03;1027386;28;20109;-73
2023/05/31 00:01:13;;;;;;;6.57;1.95;;;;;;;12.58;100.00;96106.31;1030161;28;20034;-74
2023/05/31 00:01:44;;;;;;;3.53;1.85;;;;;;;12.57;100.00;96102.88;1034053;28;20037;-75
2023/05/31 00:02:14;;;;;;;4.93;1.90;;;;;;;12.54;100.00;96105.25;1026641;28;20027;-74
2023/05/31 00:02:45;;;;;;;4.57;2.20;;;;;;;12.55;100.00;96101.56;1030575;28;20105;-74
2023/05/31 00:03:15;;;;;;;3.28;1.58;;;;;;;12.53;100.00;96101.81;1030806;28;20035;-74
2023/05/31 00:03:45;;;;;;;4.47;1.83;;;;;;;12.50;100.00;96100.50;1034651;28;20029;-75
2023/05/31 00:04:16;;;;;;;5.90;1.70;;;;;;;12.50;100.00;96100.50;1038584;28;20026;-75
2023/05/31 00:04:46;;;;;;;4.25;2.08;;;;;;;12.52;100.00;96099.47;1038781;28;20484;-74
2023/05/31 00:05:17;;;;;;;3.03;1.70;;;;;;;12.47;100.00;96098.44;1038838;28;20028;-74
2023/05/31 00:05:47;;;;;;;3.60;2.05;;;;;;;12.46;100.00;96096.84;1034559;28;20054;-74
2023/05/31 00:06:18;;;;;;;2.58;1.67;;;;;;;12.46;100.00;96098.69;1034742;28;20034;-75
2023/05/31 00:06:48;;;;;;;3.47;1.63;;;;;;;12.43;100.00;96097.34;1030704;28;20512;-74
2023/05/31 00:07:19;;;;;;;5.15;1.60;;;;;;;12.42;100.00;96093.16;1034070;28;20034;-74
2023/05/31 00:07:49;;;;;;;2.40;1.65;;;;;;;12.42;100.00;96097.63;1030488;28;20498;-74
2023/05/31 00:08:20;;;;;;;3.95;1.85;;;;;;;12.41;100.00;96096.84;1030792;28;20018;-74
2023/05/31 00:08:50;;;;;;;4.57;2.10;;;;;;;12.40;100.00;96095.25;1034462;28;20041;-74
2023/05/31 00:09:21;;;;;;;9.70;2.25;;;;;;;12.39;100.00;96095.53;1034846;28;20033;-74
2023/05/31 00:09:51;;;;;;;7.28;2.15;;;;;;;12.40;100.00;96105.00;1038636;28;20034;-74
2023/05/31 00:10:21;;;;;;;5.53;1.90;;;;;;;12.37;100.00;96095.78;1030967;28;20452;-75
2023/05/31 00:10:52;;;;;;;4.78;2.00;;;;;;;12.37;100.00;96106.31;1030515;28;20044;-74
2023/05/31 00:11:22;;;;;;;4.03;1.88;;;;;;;12.37;100.00;96102.91;1029852;28;20574;-74
2023/05/31 00:11:53;;;;;;;3.45;1.67;;;;;;;12.36;100.00;96106.59;1026594;28;20027;-74
2023/05/31 00:12:23;;;;;;;3.30;1.67;;;;;;;12.37;100.00;96093.16;1038592;28;20036;-73
2023/05/31 00:12:54;;;;;;;5.15;1.83;;;;;;;12.36;100.00;96104.75;1034568;28;20096;-74
2023/05/31 00:13:24;;;;;;;4.15;1.85;;;;;;;12.35;100.00;96097.13;1034828;28;20697;-75
2023/05/31 00:13:55;;;;;;;4.30;1.80;;;;;;;12.36;100.00;96104.75;1034198;28;20034;-74
2023/05/31 00:14:25;;;;;;;4.25;1.70;;;;;;;12.35;100.00;96100.53;1030579;28;20764;-76
2023/05/31 00:14:55;;;;;;;3.60;1.83;;;;;;;12.35;100.00;96105.03;1034716;28;20064;-74
2023/05/31 00:15:26;;;;;;;4.80;1.80;;;;;;;12.32;100.00;96101.06;1030518;28;20030;-74
2023/05/31 00:15:56;;;;;;;3.78;1.63;;;;;;;12.32;100.00;96095.81;1034613;28;20100;-74
2023/05/31 00:16:27;;;;;;;2.70;1.88;;;;;;;12.34;100.00;96095.53;1034548;28;20423;-74
2023/05/31 00:16:57;;;;;;;4.13;2.10;;;;;;;12.33;100.00;96096.59;1030615;28;20038;-74
2023/05/31 00:17:28;;;;;;;6.97;2.63;;;;;;;12.34;100.00;96095.53;1033832;28;20030;-75
2023/05/31 00:17:58;;;;;;;3.58;1.80;;;;;;;12.33;100.00;96099.22;1034562;28;20157;-76
2023/05/31 00:18:29;;;;;;;6.20;1.75;;;;;;;12.28;100.00;96086.88;1030472;28;20026;-75
2023/05/31 00:18:59;;;;;;;2.72;1.60;;;;;;;12.34;100.00;96096.34;1034830;28;20029;-73
2023/05/31 00:19:30;;;;;;;2.47;1.42;;;;;;;12.32;100.00;96098.44;1034485;28;20026;-74
2023/05/31 00:20:00;;;;;;;5.15;1.80;;;;;;;12.31;100.00;96093.41;1034658;28;20060;-74
2023/05/31 00:20:31;;;;;;;2.30;1.52;;;;;;;12.29;100.00;96093.69;1034583;28;20041;-75
2023/05/31 00:21:01;;;;;;;2.95;1.77;;;;;;;12.31;100.00;96096.88;1030341;28;20064;-74
2023/05/31 00:21:32;;;;;;;5.50;1.90;;;;;;;12.29;100.00;96098.97;1034555;28;20037;-74
2023/05/31 00:22:02;;;;;;;3.03;1.67;;;;;;;12.30;100.00;96095.25;1034629;28;20604;-74
2023/05/31 00:22:33;;;;;;;5.65;1.80;;;;;;;12.30;100.00;96097.91;1034560;28;20113;-74
2023/05/31 00:23:03;;;;;;;2.67;1.40;;;;;;;12.30;100.00;96103.16;1030535;28;20405;-74
2023/05/31 00:23:34;;;;;;;4.65;1.98;;;;;;;12.24;100.00;96096.34;1030563;28;20045;-74
2023/05/31 00:24:04;;;;;;;3.92;1.70;;;;;;;12.30;100.00;96102.38;1034600;28;20033;-75
2023/05/31 00:24:35;;;;;;;3.75;1.85;;;;;;;12.27;100.00;96103.69;1038460;28;20037;-75
2023/05/31 00:25:06;;;;;;;5.43;1.90;;;;;;;12.29;100.00;96098.19;1042918;28;20032;-74
2023/05/31 00:25:36;;;;;;;4.70;1.80;;;;;;;12.30;100.00;96100.53;1042495;28;20971;-74
2023/05/31 00:26:07;;;;;;;4.53;1.80;;;;;;;12.27;100.00;96101.06;1038533;28;20495;-75
2023/05/31 00:26:37;;;;;;;3.10;1.73;;;;;;;12.24;100.00;96094.50;1034467;28;20518;-73
2023/05/31 00:27:08;;;;;;;4.05;1.60;;;;;;;12.30;100.00;96103.16;1030720;28;20041;-74
2023/05/31 00:27:38;;;;;;;3.95;1.70;;;;;;;12.29;100.00;96104.22;1034633;28;20025;-73
2023/05/31 00:28:09;;;;;;;3.35;1.75;;;;;;;12.30;100.00;96100.53;1034529;28;20033;-74
2023/05/31 00:28:40;;;;;;;5.50;1.65;;;;;;;12.17;100.00;96085.28;1030508;28;20190;-74
2023/05/31 00:29:10;;;;;;;4.40;1.83;;;;;;;12.27;100.00;96095.78;1034466;28;20085;-74
2023/05/31 00:29:41;;;;;;;4.15;1.75;;;;;;;12.26;100.00;96102.13;1030581;28;20061;-74
2023/05/31 00:30:12;;;;;;;3.65;1.70;;;;;;;12.27;100.00;96106.31;1030567;28;20026;-75
2023/05/31 00:30:42;;;;;;;3.28;1.55;;;;;;;12.29;100.00;96098.19;1034437;28;20605;-74
2023/05/31 00:31:13;;;;;;;3.80;1.83;;;;;;;12.27;100.00;96101.06;1029681;28;20292;-74
2023/05/31 00:31:43;;;;;;;3.15;2.13;;;;;;;12.26;100.00;96096.84;1030681;28;20030;-74
2023/05/31 00:32:14;;;;;;;3.80;1.65;;;;;;;12.26;100.00;96100.28;1034646;28;20419;-74
2023/05/31 00:32:44;;;;;;;3.03;2.10;;;;;;;12.25;100.00;96103.19;1026325;28;20035;-72
2023/05/31 00:33:15;;;;;;;5.10;1.85;;;;;;;12.18;100.00;96086.88;1030395;28;20038;-74
2023/05/31 00:33:45;;;;;;;3.38;1.80;;;;;;;12.23;100.00;96097.38;1026481;28;20026;-74
2023/05/31 00:34:16;;;;;;;2.60;1.52;;;;;;;12.22;100.00;96106.34;1022568;28;20039;-74
2023/05/31 00:34:46;;;;;;;4.55;1.88;;;;;;;12.21;100.00;96107.41;1031806;28;20031;-75
2023/05/31 00:35:17;;;;;;;4.70;1.77;;;;;;;12.18;100.00;96100.03;1022685;28;20505;-74
2023/05/31 00:35:47;;;;;;;3.88;1.70;;;;;;;12.19;100.00;96104.22;1026498;28;20027;-74
2023/05/31 00:36:18;;;;;;;3.45;1.95;;;;;;;12.18;100.00;96102.66;1030273;28;20022;-72
2023/05/31 00:36:48;;;;;;;3.83;1.90;;;;;;;12.18;100.00;96103.44;1026560;28;20038;-73
2023/05/31 00:37:18;;;;;;;4.75;1.80;;;;;;;12.18;100.00;96103.44;1030452;28;20065;-73
2023/05/31 00:37:49;;;;;;;2.58;1.63;;;;;;;12.18;100.00;96102.66;1030498;28;20046;-75
2023/05/31 00:38:19;;;;;;;2.42;1.60;;;;;;;12.19;100.00;96109.50;1026424;28;20074;-75
2023/05/31 00:38:50;;;;;;;3.83;1.80;;;;;;;12.17;100.00;96104.50;1026379;28;20035;-74
2023/05/31 00:39:20;;;;;;;4.00;1.90;;;;;;;12.17;100.00;96106.31;1026569;28;20393;-74
2023/05/31 00:39:51;;;;;;;3.90;1.80;;;;;;;12.17;100.00;96111.56;1031739;28;20042;-74
2023/05/31 00:40:21;;;;;;;3.97;2.00;;;;;;;12.17;100.00;96108.94;1038716;28;20518;-74
2023/05/31 00:40:52;;;;;;;4.22;1.92;;;;;;;12.15;100.00;96103.19;1042518;28;20103;-75
2023/05/31 00:41:23;;;;;;;5.70;1.85;;;;;;;12.14;100.00;96104.22;1041935;28;20028;-73
2023/05/31 00:41:53;;;;;;;3.80;1.52;;;;;;;12.13;100.00;96106.06;1030624;28;20022;-73
2023/05/31 00:42:25;;;;;;;3.92;1.92;;;;;;;12.13;100.00;96110.53;1030566;28;20080;-75
2023/05/31 00:42:56;;;;;;;2.65;1.58;;;;;;;12.08;100.00;96102.66;1030366;28;20057;-73
2023/05/31 00:43:26;;;;;;;4.43;1.63;;;;;;;12.11;100.00;96110.03;1026836;28;20559;-73
2023/05/31 00:43:57;;;;;;;3.35;1.60;;;;;;;12.13;100.00;96111.31;1030436;28;20034;-74
2023/05/31 00:44:27;;;;;;;2.28;1.65;;;;;;;12.13;100.00;96111.31;1026596;28;20094;-74
2023/05/31 00:44:58;;;;;;;3.63;1.75;;;;;;;12.15;100.00;96113.69;1026316;28;20042;-74
2023/05/31 00:45:28;;;;;;;2.47;1.33;;;;;;;12.07;100.00;96095.78;1030559;28;20049;-75
2023/05/31 00:45:59;;;;;;;3.47;1.80;;;;;;;12.12;100.00;96114.22;1030902;28;20026;-73
2023/05/31 00:46:34;;;;;;;3.10;1.70;;;;;;;12.11;100.00;96107.41;1030334;28;20037;-74
2023/05/31 00:47:05;;;;;;;3.22;2.00;;;;;;;12.10;100.00;96116.31;1030576;28;20033;-72
2023/05/31 00:47:35;;;;;;;4.30;1.75;;;;;;;12.06;100.00;96110.00;1023369;28;20274;-74
2023/05/31 00:48:06;;;;;;;4.63;1.77;;;;;;;12.07;100.00;96107.09;1030389;28;20866;-74
2023/05/31 00:48:38;;;;;;;4.00;1.60;;;;;;;12.02;100.00;96109.75;1026462;28;20030;-74
2023/05/31 00:49:09;;;;;;;4.30;1.30;;;;;;;12.05;100.00;96111.84;1026484;28;20049;-73
2023/05/31 00:49:39;;;;;;;2.42;1.42;;;;;;;12.02;100.00;96105.28;1019204;28;20036;-74
2023/05/31 00:50:10;;;;;;;6.15;1.77;;;;;;;12.02;100.00;96105.28;1030912;28;20093;-74
2023/05/31 00:50:40;;;;;;;7.20;2.10;;;;;;;12.01;100.00;96113.44;1035141;28;20076;-73
2023/05/31 00:51:12;;;;;;;3.55;1.70;;;;;;;12.00;100.00;96106.56;1034253;28;20057;-73
2023/05/31 00:51:42;;;;;;;7.88;1.58;;;;;;;11.99;100.00;96110.25;1030332;28;20149;-73
2023/05/31 00:52:12;;;;;;;4.70;1.58;;;;;;;11.98;100.00;96104.22;1030616;28;20363;-73
2023/05/31 00:52:44;;;;;;;4.00;1.60;;;;;;;12.00;100.00;96112.66;1030873;28;20041;-73
2023/05/31 00:53:15;;;;;;;3.90;1.55;;;;;;;12.00;100.00;96107.38;1030292;28;20026;-73
2023/05/31 00:53:45;;;;;;;4.55;1.88;;;;;;;12.02;100.00;96105.28;1028053;28;20285;-73
2023/05/31 00:54:16;;;;;;;3.47;2.40;;;;;;;12.03;100.00;96112.09;1030527;28;20037;-73
2023/05/31 00:54:46;;;;;;;4.53;1.70;;;;;;;12.01;100.00;96108.97;1026549;28;20416;-73
2023/05/31 00:55:17;;;;;;;5.60;1.95;;;;;;;11.99;100.00;96099.75;1036860;28;20034;-73
2023/05/31 00:55:48;;;;;;;2.70;1.42;;;;;;;11.98;100.00;96100.81;1034286;28;20593;-72
2023/05/31 00:56:19;;;;;;;6.38;2.00;;;;;;;11.97;100.00;96107.09;1030163;28;20019;-73
2023/05/31 00:56:49;;;;;;;4.47;1.55;;;;;;;11.95;100.00;96102.09;1034351;28;20264;-73
2023/05/31 00:57:20;;;;;;;2.92;1.80;;;;;;;11.97;100.00;96100.03;1038599;28;20026;-73
2023/05/31 00:57:51;;;;;;;4.43;1.77;;;;;;;11.94;100.00;96111.06;1038385;28;20495;-74
2023/05/31 00:58:21;;;;;;;3.72;1.75;;;;;;;11.93;100.00;96098.94;1026767;28;20041;-73
2023/05/31 00:58:52;;;;;;;1.95;1.60;;;;;;;11.95;100.00;96104.75;1026318;28;20027;-75
2023/05/31 00:59:23;;;;;;;8.93;1.90;;;;;;;11.94;100.00;96108.44;1030500;28;20034;-73
2023/05/31 00:59:53;;;;;;;7.70;2.15;;;;;;;11.93;100.00;96098.94;1030651;28;20041;-74
2023/05/31 01:00:24;;;;;;;3.33;2.10;;;;;;;11.91;100.00;96101.06;1030274;28;20027;-75
2023/05/31 01:00:55;;;;;;;3.33;2.10;;;;;;;11.89;100.00;96095.25;1030633;28;20030;-74
2023/05/31 01:01:26;;;;;;;8.18;2.28;;;;;;;11.90;100.00;96102.09;1025764;28;20031;-72
2023/05/31 01:01:56;;;;;;;3.58;1.75;;;;;;;11.83;100.00;96095.50;1026018;28;21134;-74
2023/05/31 01:02:27;;;;;;;2.50;1.63;;;;;;;11.86;100.00;96100.25;1026785;28;20033;-73
2023/05/31 01:03:01;;;;;;;4.75;1.98;;;;;;;11.84;100.00;96103.16;1030409;28;20783;-74
2023/05/31 01:03:31;;;;;;;4.60;1.77;;;;;;;11.82;100.00;96102.59;1030602;28;20085;-74
2023/05/31 01:04:02;;;;;;;5.38;2.42;;;;;;;11.83;100.00;96100.75;1029729;28;20687;-73
2023/05/31 01:04:33;;;;;;;3.90;1.67;;;;;;;11.82;100.00;96099.97;1023200;28;20535;-73
2023/05/31 01:05:06;;;;;;;2.65;1.40;;;;;;;11.75;100.00;96091.53;1026666;28;20360;-74
2023/05/31 01:05:36;;;;;;;4.50;1.80;;;;;;;11.79;100.00;96105.75;1026232;28;20044;-73
2023/05/31 01:06:08;;;;;;;3.63;1.83;;;;;;;11.74;100.00;96096.00;1030850;28;20726;-73
2023/05/31 01:06:39;;;;;;;5.80;2.40;;;;;;;11.79;100.00;96108.38;1034675;28;20029;-74
2023/05/31 01:07:09;;;;;;;4.68;1.85;;;;;;;11.77;100.00;96103.38;1036180;28;20279;-73
2023/05/31 01:07:41;;;;;;;4.53;1.65;;;;;;;11.76;100.00;96103.63;1034426;28;20021;-75
2023/05/31 01:08:14;;;;;;;6.15;1.80;;;;;;;11.75;100.00;96102.06;1038364;28;20022;-73
2023/05/31 01:08:44;;;;;;;3.60;1.60;;;;;;;11.73;100.00;96097.03;1034867;28;20116;-73
2023/05/31 01:09:15;;;;;;;3.20;1.90;;;;;;;11.74;100.00;96103.91;1038675;28;20267;-73
2023/05/31 01:09:45;;;;;;;7.47;2.58;;;;;;;11.72;100.00;96097.31;1029920;28;20635;-74
2023/05/31 01:10:16;;;;;;;4.00;1.88;;;;;;;11.72;100.00;96100.72;1034121;28;20029;-74
2023/05/31 01:10:46;;;;;;;3.65;1.80;;;;;;;11.72;100.00;96102.56;1024721;28;20501;-75
2023/05/31 01:11:29;;;;;;;2.47;1.63;;;;;;;11.72;100.00;96100.72;1017567;29;20035;-74
2023/05/31 01:12:45;;;;;;;5.15;1.58;;;;;;;11.71;100.00;96101.78;1026331;28;20620;-74
2023/05/31 01:13:32;;;;;;;2.33;1.60;;;;;;;11.71;100.00;96103.63;1029919;28;20854;-75
2023/05/31 01:14:17;;;;;;;6.50;1.90;;;;;;;11.70;100.00;96107.28;1025911;28;20278;-73
2023/05/31 01:15:07;;;;;;;3.42;1.48;;;;;;;11.70;100.00;96109.91;1034542;28;20260;-73
2023/05/31 01:15:46;;;;;;;3.63;1.75;;;;;;;11.65;100.00;96102.03;1029774;28;20281;-74
2023/05/31 01:16:38;;;;;;;3.50;1.95;;;;;;;11.61;100.00;96100.97;1026128;28;20273;-74
2023/05/31 01:17:37;;;;;;;1.98;1.52;;;;;;;11.65;100.00;96107.28;1022705;28;20274;-73
2023/05/31 01:18:26;;;;;;;5.03;1.55;;;;;;;11.65;100.00;96109.94;1020940;29;20286;-73
2023/05/31 01:19:01;;;;;;;3.70;1.45;;;;;;;11.62;100.00;96110.44;1020714;29;20832;-74
2023/05/31 01:19:47;;;;;;;4.00;1.80;;;;;;;11.62;100.00;96110.44;1018280;29;20267;-73
2023/05/31 01:20:19;;;;;;;4.60;1.60;;;;;;;11.60;100.00;96107.28;1018657;29;20310;-73
2023/05/31 01:20:50;;;;;;;3.92;2.05;;;;;;;11.54;100.00;96099.38;1030185;28;20922;-73
2023/05/31 01:21:21;;;;;;;5.20;1.67;;;;;;;11.61;100.00;96108.88;1028498;28;20358;-73
2023/05/31 01:21:58;;;;;;;6.30;1.75;;;;;;;11.59;100.00;96105.69;1034026;28;20044;-74
2023/05/31 01:22:50;;;;;;;3.03;1.50;;;;;;;11.60;100.00;96112.53;1022440;29;20271;-73
2023/05/31 01:23:45;;;;;;;4.35;1.70;;;;;;;11.57;100.00;96109.38;1026371;28;20290;-74
2023/05/31 01:24:38;;;;;;;2.92;1.70;;;;;;;11.54;100.00;96115.16;1033536;28;20307;-73
2023/05/31 01:25:30;;;;;;;6.57;2.30;;;;;;;11.51;100.00;96112.25;1030324;28;20308;-73
2023/05/31 01:26:30;;;;;;;2.97;1.55;;;;;;;11.50;100.00;96108.03;1026273;28;21048;-74
2023/05/31 01:27:00;;;;;;;6.30;2.25;;;;;;;11.47;100.00;96108.56;1028673;28;20277;-74
2023/05/31 01:27:30;;;;;;;4.63;1.50;;;;;;;11.47;100.00;96109.38;1022416;29;20346;-73
2023/05/31 01:28:02;;;;;;;4.65;1.80;;;;;;;11.46;100.00;96104.34;1022191;28;20038;-73
2023/05/31 01:28:34;;;;;;;4.22;1.73;;;;;;;11.46;100.00;96107.75;1022306;29;20315;-74
2023/05/31 01:29:08;;;;;;;5.90;1.63;;;;;;;11.45;100.00;96108.81;1018726;29;20326;-73
2023/05/31 01:29:38;;;;;;;3.47;1.70;;;;;;;11.42;100.00;96093.56;1031598;28;20849;-74
2023/05/31 01:30:09;;;;;;;4.57;1.48;;;;;;;11.44;100.00;96099.38;1038559;28;20306;-75
2023/05/31 01:30:40;;;;;;;2.17;1.30;;;;;;;11.44;100.00;96104.63;1026363;28;20022;-74
2023/05/31 01:31:14;;;;;;;2.67;1.50;;;;;;;11.43;100.00;96103.03;1025753;28;20031;-73
2023/05/31 01:31:45;;;;;;;1.92;1.25;;;;;;;11.40;100.00;96097.50;1030800;28;20030;-74
2023/05/31 01:32:16;;;;;;;4.25;1.48;;;;;;;11.38;100.00;96095.13;1030463;28;20343;-73
2023/05/31 01:32:46;;;;;;;5.45;2.10;;;;;;;11.39;100.00;96101.97;1018437;29;21018;-75
2023/05/31 01:33:16;;;;;;;4.93;1.58;;;;;;;11.39;100.00;96106.44;1022041;28;20038;-74
2023/05/31 01:33:48;;;;;;;5.60;1.77;;;;;;;11.40;100.00;96098.31;1030418;28;20022;-73
2023/05/31 01:34:19;;;;;;;3.60;1.92;;;;;;;11.41;100.00;96097.25;1034323;28;20034;-74
2023/05/31 01:34:49;;;;;;;5.50;1.85;;;;;;;11.35;100.00;96090.41;1033700;28;20799;-73
2023/05/31 01:35:20;;;;;;;2.35;1.50;;;;;;;11.41;100.00;96099.88;1034417;28;20080;-74
2023/05/31 01:35:50;;;;;;;7.70;2.17;;;;;;;11.44;100.00;96101.22;1034274;28;20036;-73
2023/05/31 01:36:21;;;;;;;4.93;1.85;;;;;;;11.42;100.00;96101.44;1034349;28;20021;-74
2023/05/31 01:36:51;;;;;;;3.58;1.75;;;;;;;11.43;100.00;96100.38;1038160;28;20029;-73
2023/05/31 01:37:22;;;;;;;3.50;1.77;;;;;;;11.43;100.00;96103.03;1034245;28;20564;-73
2023/05/31 01:37:52;;;;;;;3.53;1.52;;;;;;;11.41;100.00;96099.88;1034472;28;20030;-73
2023/05/31 01:38:23;;;;;;;4.82;1.73;;;;;;;11.40;100.00;96098.31;1033332;28;20034;-75
2023/05/31 01:38:53;;;;;;;5.25;2.03;;;;;;;11.38;100.00;96097.75;1030260;28;20067;-73
2023/05/31 01:39:24;;;;;;;6.30;1.73;;;;;;;11.36;100.00;96097.22;1030230;28;20085;-74
2023/05/31 01:39:54;;;;;;;3.38;1.67;;;;;;;11.39;100.00;96093.28;1034209;28;20105;-74
2023/05/31 01:40:25;;;;;;;2.95;1.98;;;;;;;11.37;100.00;96095.38;1034353;28;20018;-74
2023/05/31 01:40:56;;;;;;;3.92;1.92;;;;;;;11.32;100.00;96090.91;1034029;28;20025;-73
2023/05/31 01:41:26;;;;;;;3.70;1.73;;;;;;;11.35;100.00;96095.66;1033747;28;20029;-73
2023/05/31 01:41:57;;;;;;;3.10;1.60;;;;;;;11.32;100.00;96096.16;1030307;28;20069;-73
2023/05/31 01:42:27;;;;;;;4.90;2.22;;;;;;;11.31;100.00;96090.13;1030347;28;20022;-73
2023/05/31 01:42:57;;;;;;;5.88;2.17;;;;;;;11.32;100.00;96093.53;1030231;28;20045;-73
2023/05/31 01:43:28;;;;;;;3.50;1.60;;;;;;;11.28;100.00;96084.59;1026033;28;20424;-74
2023/05/31 01:43:58;;;;;;;5.63;1.63;;;;;;;11.29;100.00;96092.22;1030193;28;20034;-76
2023/05/31 01:44:29;;;;;;;3.65;2.30;;;;;;;11.29;100.00;96094.06;1030318;28;20414;-74
2023/05/31 01:44:59;;;;;;;4.35;1.98;;;;;;;11.29;100.00;96096.69;1034270;28;20033;-74
2023/05/31 01:45:30;;;;;;;3.75;2.00;;;;;;;11.26;100.00;96094.56;1030187;28;20030;-73
2023/05/31 01:46:00;;;;;;;2.92;1.38;;;;;;;11.26;100.00;96089.31;1030134;28;20050;-74
2023/05/31 01:46:31;;;;;;;5.03;1.75;;;;;;;11.21;100.00;96086.69;1030014;28;20038;-74
2023/05/31 01:47:01;;;;;;;3.50;2.00;;;;;;;11.21;100.00;96089.31;1026125;28;20027;-74
2023/05/31 01:47:32;;;;;;;3.03;1.70;;;;;;;11.24;100.00;96101.94;1018241;29;20027;-73
2023/05/31 01:48:07;;;;;;;4.07;1.80;;;;;;;11.22;100.00;96096.91;1014325;29;20042;-74
2023/05/31 01:48:37;;;;;;;3.95;1.83;;;;;;;11.22;100.00;96091.66;1030393;28;20504;-74
2023/05/31 01:49:08;;;;;;;3.30;1.80;;;;;;;11.21;100.00;96081.44;1026872;28;20266;-73
2023/05/31 01:49:38;;;;;;;3.47;1.75;;;;;;;11.22;100.00;96085.63;1030132;28;20580;-73
2023/05/31 01:50:10;;;;;;;6.75;2.22;;;;;;;11.21;100.00;96086.69;1029767;28;20033;-73
2023/05/31 01:50:40;;;;;;;3.85;1.80;;;;;;;11.19;100.00;96088.75;1030561;28;20610;-72
2023/05/31 01:51:11;;;;;;;4.72;1.80;;;;;;;11.18;100.00;96084.56;1029819;28;20388;-74
2023/05/31 01:51:41;;;;;;;3.88;1.67;;;;;;;11.11;100.00;96076.13;1022710;28;20027;-74
2023/05/31 01:52:13;;;;;;;3.88;1.70;;;;;;;11.18;100.00;96090.59;1026202;28;20102;-74
2023/05/31 01:52:44;;;;;;;6.00;2.30;;;;;;;11.15;100.00;96085.84;1026167;28;20019;-75
2023/05/31 01:53:14;;;;;;;3.55;1.30;;;;;;;11.13;100.00;96087.16;1022167;28;20282;-74
2023/05/31 01:53:45;;;;;;;4.25;1.98;;;;;;;11.14;100.00;96083.50;1024405;28;20030;-73
2023/05/31 01:54:15;;;;;;;4.50;1.92;;;;;;;11.07;100.00;96079.28;1026138;28;20077;-72
2023/05/31 01:54:46;;;;;;;2.90;1.75;;;;;;;11.12;100.00;96088.22;1026224;28;20033;-74
2023/05/31 01:55:16;;;;;;;2.90;1.75;;;;;;;10.98;100.00;96066.88;1023909;28;20571;-73
2023/05/31 01:55:47;;;;;;;4.75;1.70;;;;;;;11.09;100.00;96090.28;1022298;29;20023;-75
2023/05/31 01:56:19;;;;;;;4.13;1.42;;;;;;;11.09;100.00;96095.53;1018354;29;20031;-73
2023/05/31 01:56:50;;;;;;;2.65;1.65;;;;;;;11.08;100.00;96086.09;1031215;28;20339;-74
2023/05/31 01:57:20;;;;;;;3.55;1.70;;;;;;;11.04;100.00;96087.66;1038414;28;20256;-73
2023/05/31 01:57:51;;;;;;;5.03;2.22;;;;;;;11.06;100.00;96090.81;1030179;28;20022;-73
2023/05/31 01:58:21;;;;;;;3.72;1.73;;;;;;;11.05;100.00;96091.84;1030254;28;20037;-73
2023/05/31 01:58:52;;;;;;;4.05;1.90;;;;;;;11.01;100.00;96084.75;1025902;28;20408;-75
2023/05/31 01:59:22;;;;;;;4.55;1.67;;;;;;;11.02;100.00;96086.34;1026351;28;20026;-73
2023/05/31 01:59:52;;;;;;;3.72;1.80;;;;;;;11.00;100.00;96089.22;1026167;28;20038;-73
2023/05/31 02:00:23;;;;;;;4.07;1.63;;;;;;;11.01;100.00;96087.38;1032311;28;20073;-74
2023/05/31 02:00:53;;;;;;;3.58;1.90;;;;;;;10.99;100.00;96086.84;1034200;28;20596;-73
2023/05/31 02:01:24;;;;;;;2.22;1.70;;;;;;;10.96;100.00;96082.88;1033723;28;20029;-74
2023/05/31 02:01:55;;;;;;;2.67;1.83;;;;;;;10.96;100.00;96085.50;1038077;28;20037;-74
2023/05/31 02:02:25;;;;;;;3.28;1.63;;;;;;;10.93;100.00;96088.69;1030049;28;20355;-72
2023/05/31 02:02:56;;;;;;;4.32;1.70;;;;;;;10.92;100.00;96092.31;1022157;29;20031;-73
2023/05/31 02:03:26;;;;;;;7.45;1.70;;;;;;;10.89;100.00;96082.31;1026187;28;20018;-74
2023/05/31 02:03:57;;;;;;;3.97;2.10;;;;;;;10.90;100.00;96094.44;1015660;29;20423;-73
2023/05/31 02:04:27;;;;;;;3.42;2.00;;;;;;;10.88;100.00;96091.25;1030116;28;20014;-74
2023/05/31 02:05:08;;;;;;;3.15;1.58;;;;;;;10.89;100.00;96092.84;1026191;28;20107;-74
2023/05/31 02:05:54;;;;;;;3.88;2.28;;;;;;;10.87;100.00;96087.06;1029703;28;20026;-73
2023/05/31 02:06:26;;;;;;;4.60;1.75;;;;;;;10.87;100.00;96079.19;1033829;28;20030;-73
2023/05/31 02:06:57;;;;;;;8.77;1.77;;;;;;;10.85;100.00;96087.31;1030832;28;20277;-73
2023/05/31 02:07:28;;;;;;;3.33;1.60;;;;;;;10.82;100.00;96087.81;1034474;28;20920;-75
2023/05/31 02:07:59;;;;;;;3.70;1.77;;;;;;;10.83;100.00;96089.41;1034452;28;20261;-74
2023/05/31 02:08:29;;;;;;;4.78;1.50;;;;;;;10.82;100.00;96081.78;1033807;28;20026;-74
2023/05/31 02:09:00;;;;;;;4.50;2.10;;;;;;;10.81;100.00;96090.69;1029976;28;20023;-74
2023/05/31 02:09:30;;;;;;;3.67;1.67;;;;;;;10.80;100.00;96094.38;1034567;28;20061;-73
2023/05/31 02:10:02;;;;;;;2.67;1.42;;;;;;;10.79;100.00;96090.94;1034173;28;20785;-72
2023/05/31 02:10:33;;;;;;;3.20;1.70;;;;;;;10.79;100.00;96087.53;1030030;28;20026;-72
2023/05/31 02:11:03;;;;;;;3.38;1.55;;;;;;;10.78;100.00;96085.97;1032294;28;20662;-73
2023/05/31 02:11:33;;;;;;;3.97;1.65;;;;;;;10.79;100.00;96087.53;1038063;28;20029;-74
2023/05/31 02:12:04;;;;;;;4.13;1.50;;;;;;;10.78;100.00;96092.00;1034394;28;20025;-74
2023/05/31 02:12:35;;;;;;;6.32;1.70;;;;;;;10.73;100.00;96091.97;1034004;28;20041;-73
2023/05/31 02:13:05;;;;;;;3.83;1.90;;;;;;;10.78;100.00;96085.97;1030116;28;20021;-72
2023/05/31 02:13:36;;;;;;;5.93;1.83;;;;;;;10.78;100.00;96091.22;1030312;28;20085;-74
2023/05/31 02:14:06;;;;;;;4.28;1.83;;;;;;;10.76;100.00;96094.06;1029980;28;20026;-74
2023/05/31 02:14:36;;;;;;;7.25;2.00;;;;;;;10.76;100.00;96091.44;1034217;28;20053;-72
2023/05/31 02:15:13;;;;;;;7.63;1.80;;;;;;;10.76;100.00;96088.03;1034066;28;20488;-73
2023/05/31 02:15:44;;;;;;;5.28;1.40;;;;;;;10.74;100.00;96092.78;1027492;28;20026;-74
2023/05/31 02:16:14;;;;;;;5.05;2.15;;;;;;;10.75;100.00;96094.34;1022111;28;20285;-73
2023/05/31 02:16:44;;;;;;;5.10;2.20;;;;;;;10.73;100.00;96089.34;1022110;29;20031;-75
2023/05/31 02:17:16;;;;;;;5.18;2.38;;;;;;;10.73;100.00;96093.78;1026801;28;20501;-73
2023/05/31 02:17:50;;;;;;;2.90;1.55;;;;;;;10.72;100.00;96092.22;1027737;28;20027;-73
2023/05/31 02:18:21;;;;;;;4.88;1.83;;;;;;;10.71;100.00;96095.91;1030225;28;20353;-74
2023/05/31 02:18:52;;;;;;;2.92;1.50;;;;;;;10.70;100.00;96089.06;1029271;28;20972;-74
2023/05/31 02:19:25;;;;;;;9.02;2.28;;;;;;;10.68;100.00;96091.16;1034756;28;20280;-73
2023/05/31 02:19:55;;;;;;;3.55;1.80;;;;;;;10.67;100.00;96094.84;1026103;28;20031;-73
2023/05/31 02:20:26;;;;;;;3.53;1.88;;;;;;;10.67;100.00;96094.84;1026215;28;21116;-74
2023/05/31 02:20:57;;;;;;;5.80;2.08;;;;;;;10.67;100.00;96094.84;1025867;28;20061;-74
2023/05/31 02:21:27;;;;;;;2.70;1.75;;;;;;;10.67;100.00;96092.22;1029453;28;20031;-74
2023/05/31 02:21:57;;;;;;;5.43;1.98;;;;;;;10.65;100.00;96091.66;1034315;28;20034;-74
2023/05/31 02:22:28;;;;;;;4.50;1.95;;;;;;;10.65;100.00;96096.91;1038912;28;20029;-72
2023/05/31 02:22:59;;;;;;;4.93;2.05;;;;;;;10.63;100.00;96099.81;1042663;28;20075;-74
2023/05/31 02:23:29;;;;;;;4.20;2.50;;;;;;;10.64;100.00;96095.34;1038137;28;20021;-74
2023/05/31 02:24:00;;;;;;;3.78;2.20;;;;;;;10.64;100.00;96104.00;1038146;28;20022;-73
2023/05/31 02:24:31;;;;;;;4.10;2.28;;;;;;;10.55;100.00;96082.69;1039913;28;20057;-73
2023/05/31 02:25:02;;;;;;;2.90;1.55;;;;;;;10.50;100.00;96080.03;1035069;28;20022;-73
2023/05/31 02:25:32;;;;;;;3.88;1.90;;;;;;;10.60;100.00;96098.47;1034821;28;20022;-74
2023/05/31 02:26:03;;;;;;;2.67;2.00;;;;;;;10.61;100.00;96094.78;1034625;28;20038;-74
2023/05/31 02:26:34;;;;;;;4.13;2.00;;;;;;;10.60;100.00;96095.84;1034917;28;20029;-73
2023/05/31 02:27:05;;;;;;;2.88;1.70;;;;;;;10.61;100.00;96101.88;1038762;28;20271;-73
2023/05/31 02:27:36;;;;;;;6.13;1.90;;;;;;;10.58;100.00;96097.91;1039014;28;20092;-73
2023/05/31 02:28:06;;;;;;;3.00;2.25;;;;;;;10.63;100.00;96099.81;1030931;28;20428;-73
2023/05/31 02:28:36;;;;;;;5.57;2.08;;;;;;;10.59;100.00;96093.47;1031048;28;20033;-75